Time;durP1;ratioP1;P1;durP2;ratioP2;P2;SDS_P1;SDS_P2;PMS_P1;PMS_P2;Temp;Humidity;BMP_temperature;BMP_pressure;BME280_temperature;BME280_humidity;BME280_pressure;Samples;Min_cycle;Max_cycle;Signal;HPM_P1;HPM_P2
2021/04/09 00:00:25;;;;;;;24.60;16.23;;;0.30;99.90;;;;;;4892746;29;20539;-80
2021/04/09 00:02:52;;;;;;;31.75;17.05;;;0.30;99.90;;;;;;4862380;29;20052;-79
2021/04/09 00:05:21;;;;;;;24.67;16.75;;;0.20;99.90;;;;;;4891541;29;20063;-79
2021/04/09 00:07:49;;;;;;;28.02;17.70;;;0.30;99.90;;;;;;4892727;29;20499;-80
2021/04/09 00:10:22;;;;;;;24.92;18.13;;;0.10;99.90;;;;;;4890469;29;20139;-80
2021/04/09 00:12:49;;;;;;;28.27;17.67;;;0.10;99.90;;;;;;4873793;29;20425;-80
2021/04/09 00:15:16;;;;;;;23.63;16.95;;;0.10;99.90;;;;;;4889129;29;20432;-80
2021/04/09 00:17:43;;;;;;;26.83;17.45;;;0.10;99.90;;;;;;4874789;29;20112;-80
2021/04/09 00:20:14;;;;;;;22.23;16.75;;;-0.10;99.90;;;;;;4895585;29;20049;-79
2021/04/09 00:22:41;;;;;;;27.20;17.13;;;-0.20;99.90;;;;;;4876638;29;20049;-79
2021/04/09 00:25:09;;;;;;;26.48;16.20;;;-0.10;99.90;;;;;;4855768;29;20068;-78
2021/04/09 00:27:36;;;;;;;22.90;16.73;;;-0.10;99.90;;;;;;4872288;29;20037;-79
2021/04/09 00:30:08;;;;;;;28.52;17.35;;;-0.10;99.90;;;;;;4873168;29;20049;-80
2021/04/09 00:32:35;;;;;;;27.88;19.77;;;-0.10;99.90;;;;;;4873605;29;20056;-80
2021/04/09 00:35:02;;;;;;;23.75;17.70;;;0.00;99.90;;;;;;4875506;29;20056;-80
2021/04/09 00:37:29;;;;;;;28.45;17.35;;;0.00;99.90;;;;;;4905163;29;20057;-79
2021/04/09 00:39:55;;;;;;;26.85;17.67;;;-0.10;99.90;;;;;;4907122;29;20064;-79
2021/04/09 00:42:22;;;;;;;27.15;17.30;;;-0.10;99.90;;;;;;4890898;29;20056;-80
2021/04/09 00:44:49;;;;;;;28.65;17.08;;;0.00;99.90;;;;;;4906061;29;20504;-79
2021/04/09 00:47:15;;;;;;;23.60;17.98;;;0.10;99.90;;;;;;4874663;29;20052;-79
2021/04/09 00:49:42;;;;;;;24.65;17.40;;;0.20;99.90;;;;;;4879214;29;20032;-80
2021/04/09 00:52:09;;;;;;;26.13;17.48;;;0.30;99.90;;;;;;4861670;29;20143;-80
2021/04/09 00:54:36;;;;;;;23.70;17.38;;;0.20;99.90;;;;;;4878735;29;20055;-79
2021/04/09 00:57:04;;;;;;;25.98;16.10;;;0.30;99.90;;;;;;4879902;29;20690;-80
2021/04/09 00:59:33;;;;;;;23.33;16.48;;;0.40;99.90;;;;;;4885894;29;20136;-79
2021/04/09 01:02:00;;;;;;;24.63;16.30;;;0.50;99.90;;;;;;4880623;29;20175;-79
2021/04/09 01:04:26;;;;;;;28.70;16.65;;;0.40;99.90;;;;;;4880741;29;20096;-79
2021/04/09 01:06:53;;;;;;;26.45;17.27;;;0.40;99.90;;;;;;4867311;29;20087;-79
2021/04/09 01:09:20;;;;;;;27.80;20.13;;;0.50;99.90;;;;;;4877613;29;20049;-78
2021/04/09 01:11:47;;;;;;;23.85;18.30;;;0.60;99.90;;;;;;4879509;29;20049;-79
2021/04/09 01:14:13;;;;;;;25.13;17.50;;;0.60;99.90;;;;;;4899474;29;20060;-80
2021/04/09 01:16:54;;;;;;;33.30;19.92;;;0.50;99.90;;;;;;4896564;29;20061;-80
2021/04/09 01:19:36;;;;;;;30.38;20.15;;;0.60;99.90;;;;;;4902688;29;20071;-80
2021/04/09 01:22:05;;;;;;;41.20;25.27;;;0.60;99.90;;;;;;4898049;29;20530;-78
2021/04/09 01:24:56;;;;;;;29.85;19.52;;;0.70;99.90;;;;;;4899015;29;20057;-80
2021/04/09 01:28:14;;;;;;;38.08;25.05;;;0.70;99.90;;;;;;4892727;29;20061;-80
2021/04/09 01:31:17;;;;;;;37.35;21.75;;;0.60;99.90;;;;;;4859234;29;20047;-79
2021/04/09 01:33:50;;;;;;;31.38;22.35;;;0.60;99.90;;;;;;4898950;29;20059;-81
2021/04/09 01:36:22;;;;;;;30.00;21.75;;;0.50;99.90;;;;;;4883595;29;20048;-80
2021/04/09 01:38:59;;;;;;;43.00;27.95;;;0.60;99.90;;;;;;4884502;29;20072;-80
2021/04/09 01:41:27;;;;;;;27.30;18.92;;;0.60;99.90;;;;;;4892069;29;20057;-80
2021/04/09 01:43:57;;;;;;;26.58;18.25;;;0.60;99.90;;;;;;4886487;29;20061;-80
2021/04/09 01:46:25;;;;;;;25.42;17.83;;;0.60;99.90;;;;;;4894735;29;20057;-81
2021/04/09 01:48:52;;;;;;;28.20;18.80;;;0.60;99.90;;;;;;4884307;29;20080;-80
2021/04/09 01:51:19;;;;;;;32.90;20.77;;;0.70;99.90;;;;;;4894682;29;20508;-81
2021/04/09 01:53:48;;;;;;;25.45;18.40;;;0.70;99.90;;;;;;4892173;29;20044;-81
2021/04/09 01:56:17;;;;;;;20.83;17.08;;;0.60;99.90;;;;;;4878703;29;20052;-81
2021/04/09 01:58:43;;;;;;;24.65;18.52;;;0.70;99.90;;;;;;4875774;29;20055;-81
2021/04/09 02:01:13;;;;;;;22.63;16.98;;;0.90;99.90;;;;;;4889925;29;20469;-78
2021/04/09 02:03:46;;;;;;;25.60;18.05;;;0.90;99.90;;;;;;4891556;29;20131;-79
2021/04/09 02:06:13;;;;;;;20.30;15.68;;;0.90;99.90;;;;;;4868917;29;20061;-79
2021/04/09 02:08:41;;;;;;;22.48;17.00;;;0.90;99.90;;;;;;4876009;29;20068;-79
2021/04/09 02:11:09;;;;;;;27.42;17.52;;;0.90;99.90;;;;;;4887545;29;20052;-80
2021/04/09 02:13:36;;;;;;;25.10;18.42;;;1.10;99.90;;;;;;4876520;29;20053;-79
2021/04/09 02:16:04;;;;;;;27.60;18.58;;;1.00;99.90;;;;;;4875608;29;20049;-80
2021/04/09 02:18:31;;;;;;;35.80;21.48;;;1.00;99.90;;;;;;4882748;29;20128;-81
2021/04/09 02:21:02;;;;;;;31.80;20.20;;;0.90;99.90;;;;;;4893400;29;20048;-79
2021/04/09 02:23:29;;;;;;;34.47;19.83;;;0.90;99.90;;;;;;4906281;29;20136;-80
2021/04/09 02:25:56;;;;;;;36.40;21.33;;;1.00;99.90;;;;;;4874196;29;20052;-79
2021/04/09 02:28:24;;;;;;;35.33;23.20;;;1.10;99.90;;;;;;4883235;29;20217;-78
2021/04/09 02:31:03;;;;;;;28.85;19.83;;;1.10;99.90;;;;;;4891938;29;20069;-79
2021/04/09 02:33:32;;;;;;;26.88;18.85;;;1.20;99.90;;;;;;4884770;29;20043;-80
2021/04/09 02:36:24;;;;;;;31.60;19.00;;;1.40;99.90;;;;;;4883288;29;20048;-80
2021/04/09 02:38:59;;;;;;;25.33;18.50;;;1.50;99.90;;;;;;4866431;29;20763;-79
2021/04/09 02:41:31;;;;;;;23.90;17.30;;;1.60;99.90;;;;;;4881868;29;20060;-80
2021/04/09 02:43:59;;;;;;;22.75;15.93;;;1.70;99.90;;;;;;4894522;29;20056;-80
2021/04/09 02:46:48;;;;;;;22.92;15.77;;;1.90;99.90;;;;;;4886536;29;20567;-80
2021/04/09 02:49:38;;;;;;;21.88;16.65;;;2.00;99.90;;;;;;4894066;29;20052;-79
2021/04/09 02:52:08;;;;;;;24.80;16.60;;;2.20;99.90;;;;;;4894643;29;20048;-79
2021/04/09 02:54:35;;;;;;;21.08;16.48;;;2.30;99.90;;;;;;4875397;29;20057;-79
2021/04/09 02:57:03;;;;;;;20.15;16.45;;;2.40;99.90;;;;;;4874760;29;20068;-81
2021/04/09 02:59:31;;;;;;;21.92;15.60;;;2.40;99.90;;;;;;4869469;29;20060;-81
2021/04/09 03:01:59;;;;;;;20.73;16.02;;;2.50;99.90;;;;;;4875282;29;20133;-78
2021/04/09 03:04:29;;;;;;;24.60;16.45;;;2.50;99.90;;;;;;4874716;29;20061;-79
2021/04/09 03:06:56;;;;;;;25.30;16.73;;;2.60;99.90;;;;;;4877417;29;20072;-79
2021/04/09 03:09:26;;;;;;;17.40;15.50;;;2.70;99.90;;;;;;4884307;29;20053;-80
2021/04/09 03:11:52;;;;;;;19.60;15.38;;;2.70;99.90;;;;;;4872890;29;20209;-80
2021/04/09 03:14:20;;;;;;;20.75;16.63;;;2.70;99.90;;;;;;4894507;29;20080;-81
2021/04/09 03:16:52;;;;;;;22.15;16.92;;;2.70;99.90;;;;;;4876286;29;20769;-79
2021/04/09 03:19:19;;;;;;;19.50;16.33;;;2.80;99.90;;;;;;4870858;29;20041;-82
2021/04/09 03:21:45;;;;;;;18.08;15.80;;;2.80;99.90;;;;;;4871743;29;20052;-81
2021/04/09 03:24:12;;;;;;;18.30;16.15;;;2.80;99.90;;;;;;4875156;29;20546;-80
2021/04/09 03:26:38;;;;;;;23.13;16.88;;;2.80;99.90;;;;;;4874120;29;20359;-80
2021/04/09 03:29:05;;;;;;;21.50;16.30;;;2.80;99.90;;;;;;4859674;29;20053;-79
2021/04/09 03:31:31;;;;;;;45.35;26.02;;;2.80;99.90;;;;;;4890195;29;20249;-80
2021/04/09 03:33:58;;;;;;;29.73;20.10;;;2.80;99.90;;;;;;4901226;29;20053;-81
2021/04/09 03:36:24;;;;;;;17.52;15.43;;;2.80;99.90;;;;;;4890427;29;20054;-80
2021/04/09 03:38:50;;;;;;;22.02;16.88;;;2.80;99.90;;;;;;4869285;29;20061;-80
2021/04/09 03:41:17;;;;;;;21.30;16.27;;;2.80;99.90;;;;;;4868906;29;20690;-80
2021/04/09 03:43:43;;;;;;;25.80;17.77;;;2.80;99.90;;;;;;4863862;29;20707;-78
2021/04/09 03:46:10;;;;;;;19.70;16.80;;;2.80;99.90;;;;;;4900832;29;20053;-81
2021/04/09 03:48:36;;;;;;;20.55;18.45;;;2.90;99.90;;;;;;4882022;29;20045;-79
2021/04/09 03:51:04;;;;;;;21.98;17.70;;;2.90;99.90;;;;;;4901031;29;20081;-79
2021/04/09 03:53:30;;;;;;;26.73;18.38;;;2.90;99.90;;;;;;4911875;29;20047;-79
2021/04/09 03:55:57;;;;;;;24.98;18.23;;;2.90;99.90;;;;;;4898799;29;20088;-77
2021/04/09 03:58:28;;;;;;;27.52;18.58;;;2.90;99.90;;;;;;4898089;29;20334;-79
2021/04/09 04:00:54;;;;;;;23.98;17.50;;;2.90;99.90;;;;;;4901590;29;20063;-79
2021/04/09 04:03:21;;;;;;;21.05;17.52;;;2.80;99.90;;;;;;4891482;29;20073;-80
2021/04/09 04:05:47;;;;;;;21.80;17.13;;;2.80;99.90;;;;;;4879826;29;20388;-79
2021/04/09 04:08:14;;;;;;;26.75;17.50;;;2.80;99.90;;;;;;4895833;29;20075;-79
2021/04/09 04:10:40;;;;;;;19.50;16.48;;;2.80;99.90;;;;;;4882131;29;20050;-79
2021/04/09 04:13:07;;;;;;;19.50;17.38;;;2.80;99.90;;;;;;4905956;29;20053;-79
2021/04/09 04:15:33;;;;;;;24.42;18.75;;;2.80;99.90;;;;;;4881512;29;20051;-79
2021/04/09 04:18:00;;;;;;;24.60;17.83;;;2.80;99.90;;;;;;4900998;29;20057;-82
2021/04/09 04:20:26;;;;;;;28.83;18.17;;;2.70;99.90;;;;;;4859653;29;20057;-79
2021/04/09 04:22:53;;;;;;;21.00;17.15;;;2.80;99.90;;;;;;4893973;29;20350;-79
2021/04/09 04:25:19;;;;;;;20.33;17.90;;;2.70;99.90;;;;;;4862018;29;20085;-79
2021/04/09 04:27:46;;;;;;;20.55;17.45;;;2.70;99.90;;;;;;4877258;29;20053;-78
2021/04/09 04:30:13;;;;;;;22.30;18.25;;;2.60;99.90;;;;;;4892514;29;20049;-78
2021/04/09 04:32:41;;;;;;;22.75;17.60;;;2.50;99.90;;;;;;4892068;29;20053;-79
2021/04/09 04:35:08;;;;;;;24.33;18.45;;;2.50;99.90;;;;;;4893121;29;20056;-79
2021/04/09 04:37:35;;;;;;;21.15;18.08;;;2.50;99.90;;;;;;4889987;29;20049;-79
2021/04/09 04:40:02;;;;;;;20.63;18.42;;;2.50;99.90;;;;;;4882015;29;20057;-79
2021/04/09 04:42:28;;;;;;;25.15;20.33;;;2.60;99.90;;;;;;4849940;29;20465;-79
2021/04/09 04:44:55;;;;;;;22.38;19.67;;;2.60;99.90;;;;;;4905824;29;20048;-79
2021/04/09 04:47:22;;;;;;;25.17;20.25;;;2.70;99.90;;;;;;4859277;29;20053;-79
2021/04/09 04:49:49;;;;;;;23.00;17.90;;;2.70;99.90;;;;;;4898489;29;20060;-79
2021/04/09 04:52:15;;;;;;;23.23;17.83;;;2.80;99.90;;;;;;4840534;29;20076;-79
2021/04/09 04:54:42;;;;;;;21.90;18.98;;;2.90;99.90;;;;;;4872045;29;20052;-79
2021/04/09 04:57:09;;;;;;;21.23;18.92;;;3.00;99.90;;;;;;4861711;29;20048;-80
2021/04/09 04:59:35;;;;;;;27.83;22.17;;;3.00;99.90;;;;;;4870504;29;20067;-82
2021/04/09 05:02:02;;;;;;;22.10;20.05;;;3.00;99.90;;;;;;4871376;29;20049;-81
2021/04/09 05:04:28;;;;;;;23.10;20.50;;;3.00;99.90;;;;;;4886275;29;20049;-80
2021/04/09 05:06:55;;;;;;;21.75;19.67;;;3.00;99.90;;;;;;4882367;29;20068;-79
2021/04/09 05:09:22;;;;;;;26.15;22.73;;;3.00;99.90;;;;;;4867686;29;20101;-80
2021/04/09 05:11:49;;;;;;;23.63;21.23;;;3.00;99.90;;;;;;4893464;29;20053;-80
2021/04/09 05:14:16;;;;;;;20.77;18.70;;;3.00;99.90;;;;;;4885082;29;20047;-81
2021/04/09 05:16:42;;;;;;;21.48;19.23;;;3.00;99.90;;;;;;4854200;29;20044;-80
2021/04/09 05:19:10;;;;;;;22.95;20.55;;;3.00;99.90;;;;;;4877037;29;20056;-79
2021/04/09 05:21:38;;;;;;;21.75;19.55;;;3.10;99.90;;;;;;4870583;29;20057;-79
2021/04/09 05:24:05;;;;;;;22.15;19.95;;;3.20;99.90;;;;;;4903986;29;20041;-79
2021/04/09 05:26:32;;;;;;;22.42;20.10;;;3.30;99.90;;;;;;4889157;29;20059;-79
2021/04/09 05:28:59;;;;;;;21.83;19.25;;;3.30;99.90;;;;;;4891136;29;20096;-78
2021/04/09 05:31:25;;;;;;;21.92;19.83;;;3.30;99.90;;;;;;4890557;29;20081;-80
2021/04/09 05:33:53;;;;;;;23.52;20.70;;;3.50;99.90;;;;;;4881829;29;20068;-79
2021/04/09 05:36:21;;;;;;;21.55;18.65;;;3.60;99.90;;;;;;4902751;29;20117;-79
2021/04/09 05:38:47;;;;;;;23.45;21.00;;;3.60;99.90;;;;;;4884664;29;20053;-81
2021/04/09 05:41:14;;;;;;;22.58;20.00;;;3.60;99.90;;;;;;4890254;29;20052;-79
2021/04/09 05:43:41;;;;;;;28.05;20.05;;;3.60;99.90;;;;;;4890641;29;20534;-80
2021/04/09 05:46:08;;;;;;;22.63;20.25;;;3.60;99.90;;;;;;4888374;29;20061;-82
2021/04/09 05:48:34;;;;;;;24.90;20.80;;;3.70;99.90;;;;;;4892680;29;20048;-79
2021/04/09 05:51:01;;;;;;;39.67;22.60;;;3.80;99.90;;;;;;4891027;29;20045;-80
2021/04/09 05:53:27;;;;;;;24.00;21.05;;;3.80;99.90;;;;;;4869684;29;20133;-79
2021/04/09 05:55:54;;;;;;;27.60;21.67;;;3.90;99.90;;;;;;4893570;29;20062;-81
2021/04/09 05:58:21;;;;;;;27.13;21.38;;;3.90;99.90;;;;;;4878928;29;20069;-79
2021/04/09 06:00:47;;;;;;;24.33;20.27;;;3.90;99.90;;;;;;4893775;29;20579;-79
2021/04/09 06:03:15;;;;;;;25.63;20.50;;;4.00;99.90;;;;;;4859149;29;20200;-78
2021/04/09 06:05:42;;;;;;;22.63;20.55;;;4.10;99.90;;;;;;4891523;29;20135;-80
2021/04/09 06:08:10;;;;;;;22.08;19.77;;;4.10;99.90;;;;;;4892752;29;20101;-79
2021/04/09 06:10:37;;;;;;;25.52;20.75;;;4.20;99.90;;;;;;4890330;29;20045;-80
2021/04/09 06:13:05;;;;;;;23.33;19.90;;;4.20;99.90;;;;;;4887467;29;20055;-78
2021/04/09 06:15:32;;;;;;;24.38;21.95;;;4.30;99.90;;;;;;4860481;29;20053;-81
2021/04/09 06:17:58;;;;;;;23.60;21.27;;;4.30;99.90;;;;;;4855701;29;20079;-79
2021/04/09 06:20:25;;;;;;;24.50;22.08;;;4.40;99.90;;;;;;4877208;29;20062;-80
2021/04/09 06:22:52;;;;;;;25.55;22.95;;;4.50;99.90;;;;;;4880446;29;20056;-79
2021/04/09 06:25:23;;;;;;;29.90;22.90;;;4.60;99.90;;;;;;4910120;29;20052;-79
2021/04/09 06:27:50;;;;;;;25.83;23.13;;;4.70;99.90;;;;;;4894592;29;20061;-79
2021/04/09 06:30:18;;;;;;;25.00;22.48;;;4.80;99.90;;;;;;4872340;29;20037;-79
2021/04/09 06:32:44;;;;;;;30.70;23.65;;;4.90;99.90;;;;;;4861329;29;20059;-79
2021/04/09 06:35:12;;;;;;;25.50;22.85;;;5.00;99.90;;;;;;4874941;29;20053;-75
2021/04/09 06:37:41;;;;;;;25.70;23.05;;;5.10;99.90;;;;;;4889312;29;20053;-79
2021/04/09 06:40:10;;;;;;;26.45;23.80;;;5.20;99.90;;;;;;4894177;29;20051;-78
2021/04/09 06:42:37;;;;;;;25.80;23.23;;;5.30;99.90;;;;;;4845348;29;20053;-78
2021/04/09 06:45:07;;;;;;;26.27;22.65;;;5.50;99.90;;;;;;4877442;29;20055;-79
2021/04/09 06:47:34;;;;;;;28.85;25.67;;;5.60;99.90;;;;;;4873929;29;20049;-78
2021/04/09 06:50:01;;;;;;;26.95;22.98;;;5.70;99.90;;;;;;4895060;29;20057;-78
2021/04/09 06:52:28;;;;;;;24.92;22.35;;;5.80;99.90;;;;;;4858636;29;20589;-79
2021/04/09 06:54:59;;;;;;;26.52;23.75;;;5.90;99.90;;;;;;4886219;29;20052;-79
2021/04/09 06:57:26;;;;;;;29.40;24.33;;;6.00;99.90;;;;;;4872121;29;20136;-78
2021/04/09 07:00:01;;;;;;;26.42;23.77;;;6.00;99.90;;;;;;4894583;29;20701;-79
2021/04/09 07:02:28;;;;;;;;;;;6.20;99.90;;;;;;4893376;29;20064;-78
2021/04/09 07:04:54;;;;;;;26.52;23.85;;;6.20;99.90;;;;;;4892671;29;19979;-78
2021/04/09 07:07:21;;;;;;;29.20;24.17;;;6.20;99.90;;;;;;4886707;29;20068;-80
2021/04/09 07:09:47;;;;;;;28.20;25.40;;;6.30;99.90;;;;;;4877052;29;20064;-79
2021/04/09 07:12:26;;;;;;;27.88;24.90;;;6.30;99.90;;;;;;4906055;29;20044;-77
2021/04/09 07:14:58;;;;;;;26.58;24.00;;;6.30;99.90;;;;;;4892940;29;20053;-79
2021/04/09 07:17:46;;;;;;;27.00;23.38;;;6.30;99.90;;;;;;4892376;29;20063;-80
2021/04/09 07:20:23;;;;;;;27.90;24.33;;;6.40;99.90;;;;;;4901042;29;20052;-78
2021/04/09 07:22:56;;;;;;;33.03;24.50;;;6.50;99.90;;;;;;4891107;29;20690;-80
2021/04/09 07:25:26;;;;;;;32.75;23.08;;;6.50;99.90;;;;;;4889622;29;20053;-78
2021/04/09 07:28:16;;;;;;;24.00;21.27;;;6.60;99.90;;;;;;4872303;29;20049;-78
2021/04/09 07:30:54;;;;;;;25.38;22.80;;;6.70;99.90;;;;;;4879742;29;20044;-79
2021/04/09 07:33:23;;;;;;;28.40;22.95;;;6.80;99.90;;;;;;4890002;29;20049;-79
2021/04/09 07:35:55;;;;;;;25.45;21.88;;;6.80;99.90;;;;;;4894830;29;20060;-79
2021/04/09 07:38:26;;;;;;;27.08;23.25;;;6.90;99.90;;;;;;4882663;29;20511;-80
2021/04/09 07:41:02;;;;;;;25.60;22.90;;;7.00;99.90;;;;;;4899072;29;20342;-78
2021/04/09 07:43:33;;;;;;;24.92;21.52;;;7.10;99.90;;;;;;4899163;29;20424;-79
2021/04/09 07:46:03;;;;;;;22.67;20.33;;;7.10;99.90;;;;;;4857403;29;20053;-80
2021/04/09 07:48:38;;;;;;;24.58;22.00;;;7.20;99.90;;;;;;4889937;29;20048;-79
2021/04/09 07:51:18;;;;;;;23.65;21.25;;;7.30;99.90;;;;;;4879141;29;20135;-78
2021/04/09 07:53:46;;;;;;;26.23;21.02;;;7.40;99.90;;;;;;4879731;29;20104;-78
2021/04/09 07:56:17;;;;;;;21.83;19.88;;;7.50;99.90;;;;;;4874865;29;20048;-78
2021/04/09 07:58:55;;;;;;;22.92;20.85;;;7.40;99.90;;;;;;4890925;29;20060;-79
2021/04/09 08:01:26;;;;;;;22.33;19.73;;;7.40;99.90;;;;;;4889928;29;20104;-78
2021/04/09 08:03:54;;;;;;;25.95;19.27;;;7.50;99.90;;;;;;4875715;29;20083;-80
2021/04/09 08:06:23;;;;;;;23.05;20.65;;;7.50;99.90;;;;;;4906907;29;20048;-77
2021/04/09 08:08:49;;;;;;;21.40;18.38;;;7.60;99.90;;;;;;4860642;29;20143;-78
2021/04/09 08:11:37;;;;;;;22.20;19.88;;;7.60;99.90;;;;;;4872598;29;20049;-80
2021/04/09 08:14:09;;;;;;;22.60;19.50;;;7.60;99.90;;;;;;4857334;29;20045;-78
2021/04/09 08:16:39;;;;;;;24.20;21.08;;;7.70;99.90;;;;;;4877964;29;20060;-78
2021/04/09 08:19:15;;;;;;;22.17;19.85;;;7.80;99.90;;;;;;4887152;29;20052;-79
2021/04/09 08:21:50;;;;;;;22.35;19.50;;;7.80;99.90;;;;;;4874025;29;20057;-79
2021/04/09 08:24:20;;;;;;;22.85;20.42;;;7.80;99.90;;;;;;4846846;29;20108;-78
2021/04/09 08:26:49;;;;;;;21.30;19.02;;;7.80;99.90;;;;;;4874404;29;20435;-80
2021/04/09 08:29:17;;;;;;;21.08;19.08;;;7.90;99.90;;;;;;4907367;29;20065;-80
2021/04/09 08:31:44;;;;;;;21.50;19.40;;;7.90;99.90;;;;;;4888266;29;21806;-80
2021/04/09 08:34:12;;;;;;;22.13;19.70;;;8.00;99.90;;;;;;4877908;29;20057;-78
2021/04/09 08:36:42;;;;;;;22.33;20.02;;;8.10;99.90;;;;;;4893701;29;20135;-78
2021/04/09 08:39:10;;;;;;;26.98;22.83;;;8.30;99.90;;;;;;4855195;29;20053;-79
2021/04/09 08:41:37;;;;;;;21.83;19.73;;;8.70;99.90;;;;;;4890488;29;20049;-78
2021/04/09 08:44:07;;;;;;;24.77;21.38;;;9.00;99.90;;;;;;4874805;29;20065;-80
2021/04/09 08:46:34;;;;;;;29.23;22.52;;;9.20;99.90;;;;;;4881332;29;20060;-77
2021/04/09 08:49:01;;;;;;;22.42;20.05;;;9.50;99.90;;;;;;4901492;29;20048;-79
2021/04/09 08:51:29;;;;;;;31.20;21.27;;;9.50;99.90;;;;;;4879999;29;20139;-79
2021/04/09 08:54:19;;;;;;;26.35;21.77;;;9.50;99.90;;;;;;4886496;29;20673;-79
2021/04/09 08:56:46;;;;;;;21.25;19.35;;;9.40;99.90;;;;;;4905078;29;20049;-78
2021/04/09 08:59:13;;;;;;;21.85;19.83;;;9.50;99.90;;;;;;4873991;29;20053;-79
2021/04/09 09:01:40;;;;;;;20.95;19.15;;;9.60;99.90;;;;;;4883237;29;20051;-80
2021/04/09 09:04:22;;;;;;;22.08;18.38;;;10.00;99.90;;;;;;4904096;29;20085;-78
2021/04/09 09:06:49;;;;;;;21.05;19.00;;;10.20;99.90;;;;;;4905611;29;20425;-79
2021/04/09 09:09:35;;;;;;;21.17;19.17;;;9.70;99.90;;;;;;4875069;29;20132;-80
2021/04/09 09:12:04;;;;;;;21.02;19.15;;;9.70;99.90;;;;;;4888021;29;20051;-78
2021/04/09 09:14:35;;;;;;;22.92;20.63;;;9.80;99.90;;;;;;4888400;29;20052;-77
2021/04/09 09:17:20;;;;;;;22.02;19.73;;;9.80;99.90;;;;;;4876364;29;20062;-77
2021/04/09 09:19:49;;;;;;;21.77;19.90;;;10.50;99.90;;;;;;4903804;29;20045;-78
2021/04/09 09:22:20;;;;;;;23.05;20.85;;;10.50;99.90;;;;;;4905527;29;20049;-75
2021/04/09 09:25:06;;;;;;;21.27;19.50;;;10.80;99.90;;;;;;4895929;29;20057;-76
2021/04/09 09:27:52;;;;;;;22.92;21.02;;;11.00;99.90;;;;;;4901494;29;20076;-75
2021/04/09 09:30:37;;;;;;;22.92;19.98;;;11.30;99.90;;;;;;4885540;29;20056;-75
2021/04/09 09:33:23;;;;;;;22.35;20.33;;;11.30;99.90;;;;;;4876274;29;20053;-78
2021/04/09 09:36:23;;;;;;;23.73;19.75;;;11.10;99.90;;;;;;4898878;29;20135;-75
2021/04/09 09:38:56;;;;;;;22.33;20.50;;;11.30;99.90;;;;;;4863700;29;20049;-76
2021/04/09 09:41:42;;;;;;;20.15;18.38;;;11.40;99.90;;;;;;4887376;29;20475;-76
2021/04/09 09:44:30;;;;;;;22.95;20.83;;;11.30;99.90;;;;;;4879384;29;20045;-76
2021/04/09 09:47:26;;;;;;;21.20;19.60;;;11.10;99.90;;;;;;4886262;29;20485;-76
2021/04/09 09:50:11;;;;;;;20.77;19.10;;;10.90;99.90;;;;;;4890912;29;20056;-76
2021/04/09 09:52:53;;;;;;;21.70;19.77;;;11.10;99.90;;;;;;4901895;29;20147;-77
2021/04/09 09:55:22;;;;;;;20.33;18.73;;;10.90;99.90;;;;;;4858395;29;20060;-79
2021/04/09 09:58:26;;;;;;;22.25;20.00;;;10.90;99.90;;;;;;4893495;29;20545;-77
2021/04/09 10:01:00;;;;;;;20.15;18.13;;;11.20;99.90;;;;;;4875294;29;20487;-76
2021/04/09 10:03:37;;;;;;;22.70;20.45;;;11.50;99.90;;;;;;4886570;29;20095;-77
2021/04/09 10:06:08;;;;;;;24.58;19.10;;;11.60;99.90;;;;;;4896871;29;20080;-75
2021/04/09 10:08:54;;;;;;;19.10;17.73;;;11.70;99.90;;;;;;4877981;29;20048;-76
2021/04/09 10:11:23;;;;;;;22.40;20.13;;;11.40;99.90;;;;;;4875485;29;20073;-76
2021/04/09 10:13:51;;;;;;;21.90;19.63;;;11.50;99.90;;;;;;4889533;29;20075;-76
2021/04/09 10:16:20;;;;;;;22.05;19.75;;;11.30;99.90;;;;;;4888433;29;20045;-76
2021/04/09 10:19:04;;;;;;;20.55;18.83;;;11.30;99.90;;;;;;4903025;29;20059;-76
2021/04/09 10:21:32;;;;;;;20.15;18.40;;;11.10;99.90;;;;;;4898713;29;20516;-76
2021/04/09 10:24:18;;;;;;;20.95;18.83;;;10.90;99.90;;;;;;4888705;29;20055;-77
2021/04/09 10:26:52;;;;;;;21.10;18.98;;;11.20;99.90;;;;;;4904031;29;20311;-77
2021/04/09 10:29:24;;;;;;;19.60;17.58;;;11.30;99.90;;;;;;4887672;29;20521;-78
2021/04/09 10:31:52;;;;;;;21.73;19.38;;;11.10;99.90;;;;;;4874352;29;20428;-77
2021/04/09 10:34:21;;;;;;;21.33;19.10;;;10.80;99.90;;;;;;4890451;29;20048;-77
2021/04/09 10:36:48;;;;;;;21.63;19.80;;;11.20;99.90;;;;;;4906661;29;20100;-77
2021/04/09 10:39:17;;;;;;;20.00;18.42;;;11.70;99.90;;;;;;4870411;29;20525;-75
2021/04/09 10:41:52;;;;;;;20.88;18.90;;;11.90;99.90;;;;;;4882388;29;20053;-77
2021/04/09 10:44:22;;;;;;;17.98;16.42;;;12.00;99.90;;;;;;4888940;29;20049;-76
2021/04/09 10:46:56;;;;;;;19.65;17.95;;;11.80;99.90;;;;;;4904738;29;20048;-76
2021/04/09 10:49:29;;;;;;;20.02;18.02;;;11.80;99.90;;;;;;4877457;29;20049;-76
2021/04/09 10:51:59;;;;;;;20.75;18.60;;;11.80;99.90;;;;;;4886191;29;20063;-75
2021/04/09 10:54:31;;;;;;;21.48;19.67;;;11.50;99.90;;;;;;4872561;29;20087;-77
2021/04/09 10:57:00;;;;;;;18.83;17.23;;;11.60;99.90;;;;;;4887119;29;20127;-76
2021/04/09 10:59:34;;;;;;;20.65;18.52;;;11.80;99.90;;;;;;4882175;29;20063;-76
2021/04/09 11:02:02;;;;;;;19.95;18.40;;;11.80;99.90;;;;;;4882808;29;20057;-76
2021/04/09 11:04:30;;;;;;;20.75;18.88;;;11.90;99.90;;;;;;4901471;29;20108;-78
2021/04/09 11:07:02;;;;;;;19.55;18.15;;;11.90;99.90;;;;;;4902775;29;20135;-76
2021/04/09 11:09:49;;;;;;;20.10;18.38;;;12.40;99.90;;;;;;4891827;29;20076;-76
2021/04/09 11:12:24;;;;;;;17.58;16.23;;;12.50;99.90;;;;;;4885070;29;20064;-77
2021/04/09 11:15:09;;;;;;;18.98;17.35;;;12.30;99.90;;;;;;4891495;29;20392;-77
2021/04/09 11:17:37;;;;;;;19.38;17.77;;;11.90;99.90;;;;;;4886750;29;20498;-76
2021/04/09 11:20:25;;;;;;;20.27;18.35;;;12.10;99.90;;;;;;4872937;29;20056;-77
2021/04/09 11:23:03;;;;;;;18.77;17.27;;;12.20;99.90;;;;;;4899114;29;20080;-75
2021/04/09 11:25:35;;;;;;;18.85;17.35;;;12.10;99.90;;;;;;4890725;29;20057;-76
2021/04/09 11:28:03;;;;;;;18.13;16.42;;;11.90;99.90;;;;;;4895842;29;20068;-76
2021/04/09 11:30:32;;;;;;;20.02;18.38;;;11.70;99.90;;;;;;4871477;29;20049;-76
2021/04/09 11:32:58;;;;;;;20.15;18.25;;;11.70;99.90;;;;;;4890876;29;20261;-75
2021/04/09 11:35:31;;;;;;;19.42;18.10;;;12.00;99.90;;;;;;4900347;29;20535;-79
2021/04/09 11:37:57;;;;;;;20.10;18.25;;;11.90;99.90;;;;;;4884448;29;20049;-75
2021/04/09 11:40:42;;;;;;;21.05;19.38;;;11.60;99.90;;;;;;4871816;29;20073;-76
2021/04/09 11:43:11;;;;;;;19.48;18.00;;;11.70;99.90;;;;;;4880426;29;20065;-77
2021/04/09 11:45:47;;;;;;;20.77;18.60;;;11.90;99.90;;;;;;4872671;29;20049;-76
2021/04/09 11:48:23;;;;;;;19.67;18.05;;;11.70;99.90;;;;;;4865326;29;20109;-76
2021/04/09 11:51:17;;;;;;;19.23;17.30;;;11.90;99.90;;;;;;4857213;29;20063;-76
2021/04/09 11:54:00;;;;;;;19.00;17.40;;;11.80;99.90;;;;;;4872498;29;20045;-77
2021/04/09 11:56:44;;;;;;;20.27;18.42;;;11.50;99.90;;;;;;4891476;29;20103;-78
2021/04/09 11:59:11;;;;;;;19.85;18.13;;;11.50;99.90;;;;;;4905012;29;20439;-77
2021/04/09 12:01:39;;;;;;;17.10;15.63;;;11.80;99.90;;;;;;4891012;29;20048;-78
2021/04/09 12:04:05;;;;;;;20.40;18.50;;;11.80;99.90;;;;;;4875919;29;20076;-78
2021/04/09 12:06:38;;;;;;;19.67;18.15;;;11.60;99.90;;;;;;4882088;29;20077;-77
2021/04/09 12:09:06;;;;;;;20.17;18.33;;;11.80;99.90;;;;;;4900943;29;20057;-78
2021/04/09 12:11:33;;;;;;;18.95;17.02;;;11.80;99.90;;;;;;4887831;29;20045;-79
2021/04/09 12:14:00;;;;;;;19.05;17.17;;;11.70;99.90;;;;;;4886234;29;20065;-80
2021/04/09 12:16:26;;;;;;;19.83;18.20;;;11.50;99.90;;;;;;4866915;29;20056;-79
2021/04/09 12:18:52;;;;;;;19.92;17.98;;;11.50;99.90;;;;;;4890441;29;20064;-79
2021/04/09 12:21:19;;;;;;;20.20;18.58;;;11.70;99.90;;;;;;4875365;29;20496;-79
2021/04/09 12:23:46;;;;;;;20.05;18.25;;;11.70;99.90;;;;;;4891654;29;20052;-79
2021/04/09 12:26:12;;;;;;;21.15;19.35;;;11.70;99.90;;;;;;4875549;29;20059;-79
2021/04/09 12:28:39;;;;;;;20.15;18.40;;;11.90;99.90;;;;;;4889396;29;20059;-80
2021/04/09 12:31:05;;;;;;;18.98;17.27;;;12.20;99.90;;;;;;4875459;29;20075;-78
2021/04/09 12:33:32;;;;;;;20.80;18.98;;;12.40;99.90;;;;;;4884278;29;20717;-77
2021/04/09 12:35:58;;;;;;;19.95;17.95;;;12.10;99.90;;;;;;4884029;29;20654;-79
2021/04/09 12:38:25;;;;;;;20.60;18.60;;;12.30;99.90;;;;;;4875176;29;20044;-79
2021/04/09 12:40:51;;;;;;;19.63;17.73;;;12.50;99.90;;;;;;4890417;29;20059;-77
2021/04/09 12:43:38;;;;;;;20.15;18.55;;;12.40;99.90;;;;;;4884881;29;20065;-79
2021/04/09 12:46:04;;;;;;;17.58;16.08;;;12.10;99.90;;;;;;4886610;29;20554;-78
2021/04/09 12:48:31;;;;;;;19.58;17.73;;;12.10;99.90;;;;;;4889569;29;20759;-78
2021/04/09 12:50:57;;;;;;;21.13;18.95;;;12.00;99.90;;;;;;4908204;29;20048;-78